Time;durP1;ratioP1;P1;durP2;ratioP2;P2;SDS_P1;SDS_P2;PMS_P1;PMS_P2;Temp;Humidity;BMP_temperature;BMP_pressure;BME280_temperature;BME280_humidity;BME280_pressure;Samples;Min_cycle;Max_cycle;Signal;HPM_P1;HPM_P2
2022/04/02 00:09:25;;;;;;;1.75;0.93;;;0.40;99.90;;;;;;20666371;28;20034;-46
2022/04/02 00:19:36;;;;;;;5.25;1.10;;;0.50;99.90;;;;;;20669256;28;20038;-48
2022/04/02 00:29:41;;;;;;;1.85;0.77;;;0.50;99.90;;;;;;20649007;28;20030;-46
2022/04/02 00:39:43;;;;;;;4.40;1.50;;;0.70;99.90;;;;;;20678886;28;20051;-45
2022/04/02 00:49:47;;;;;;;4.72;2.17;;;0.70;99.90;;;;;;20675278;28;20149;-46
2022/04/02 00:59:49;;;;;;;55.67;3.45;;;0.70;99.90;;;;;;20674512;28;20391;-46
2022/04/02 01:09:52;;;;;;;229.82;12.55;;;0.60;99.90;;;;;;20674043;28;20409;-46
2022/04/02 01:19:55;;;;;;;6.03;2.55;;;0.40;99.90;;;;;;20656997;28;20065;-45
2022/04/02 01:30:06;;;;;;;7.03;1.87;;;0.30;99.90;;;;;;20656178;28;20038;-49
2022/04/02 01:40:10;;;;;;;11.52;1.73;;;-0.10;99.90;;;;;;20594396;28;1375713;-46
2022/04/02 01:50:17;;;;;;;3.90;1.23;;;-0.30;99.90;;;;;;20672463;28;20030;-45
2022/04/02 02:00:24;;;;;;;4.07;1.65;;;-0.40;99.90;;;;;;20674509;28;20038;-46
2022/04/02 02:10:27;;;;;;;4.72;1.85;;;-0.40;99.90;;;;;;20641229;28;20046;-46
2022/04/02 02:20:38;;;;;;;44.43;3.13;;;-0.50;99.90;;;;;;20672557;28;20096;-45
2022/04/02 02:30:41;;;;;;;469.63;20.02;;;-0.50;99.90;;;;;;20639621;28;20100;-45
2022/04/02 02:40:44;;;;;;;374.40;15.23;;;-0.50;99.90;;;;;;20656005;28;20050;-44
2022/04/02 02:50:53;;;;;;;662.45;29.40;;;-0.60;99.90;;;;;;20638673;28;20034;-44
2022/04/02 03:00:56;;;;;;;53.78;3.22;;;-0.80;99.90;;;;;;20671008;28;20042;-45
2022/04/02 03:11:03;;;;;;;51.08;2.80;;;-0.90;99.90;;;;;;20669276;28;20038;-45
2022/04/02 03:21:09;;;;;;;1.83;1.00;;;-1.00;99.90;;;;;;20652520;28;20189;-45
2022/04/02 03:31:13;;;;;;;0.80;0.40;;;-1.00;99.90;;;;;;20653689;28;20481;-44
2022/04/02 03:41:19;;;;;;;0.88;0.50;;;-1.10;99.90;;;;;;20635927;28;20054;-44
2022/04/02 03:51:25;;;;;;;1.63;0.55;;;-1.10;99.90;;;;;;20635894;28;20038;-44
2022/04/02 04:01:28;;;;;;;1.45;0.55;;;-1.20;99.90;;;;;;20668070;28;20461;-44
2022/04/02 04:11:33;;;;;;;4.43;0.95;;;-1.40;99.90;;;;;;20651078;28;20042;-44
2022/04/02 04:21:37;;;;;;;0.35;0.20;;;-1.60;99.90;;;;;;20659482;28;20038;-44
2022/04/02 04:31:41;;;;;;;4.07;0.90;;;-1.60;99.90;;;;;;20648669;28;20077;-44
2022/04/02 04:41:43;;;;;;;6.28;1.15;;;-1.60;99.90;;;;;;20680656;28;20457;-45
2022/04/02 04:51:48;;;;;;;3.53;1.00;;;-1.80;99.90;;;;;;20663582;28;20093;-44
2022/04/02 05:01:51;;;;;;;5.72;1.13;;;-1.90;99.90;;;;;;20679051;28;20034;-44
2022/04/02 05:11:57;;;;;;;3.33;0.63;;;-1.90;99.90;;;;;;20661831;28;20065;-46
2022/04/02 05:22:01;;;;;;;5.38;0.95;;;-1.80;99.90;;;;;;20677476;28;20089;-47
2022/04/02 05:32:08;;;;;;;2.80;0.70;;;-1.80;99.90;;;;;;20659266;28;20381;-45
2022/04/02 05:42:12;;;;;;;3.15;0.70;;;-1.70;99.90;;;;;;20659506;28;20521;-46
2022/04/02 05:52:14;;;;;;;2.28;0.60;;;-1.30;99.90;;;;;;20675264;28;20042;-44
2022/04/02 06:02:18;;;;;;;0.95;0.50;;;-0.90;99.90;;;;;;20674530;28;20042;-46
2022/04/02 06:12:20;;;;;;;2.05;1.00;;;-0.60;99.90;;;;;;20674030;28;20108;-47
2022/04/02 06:22:23;;;;;;;2.78;0.63;;;-0.40;99.90;;;;;;20672930;28;20034;-44
2022/04/02 06:32:26;;;;;;;0.75;0.30;;;-0.50;99.90;;;;;;20657401;28;20045;-43
2022/04/02 06:42:30;;;;;;;2.50;0.50;;;-0.30;99.90;;;;;;20654581;28;20054;-44
2022/04/02 06:52:33;;;;;;;4.15;0.88;;;0.20;99.90;;;;;;20638482;28;20092;-46
2022/04/02 07:02:35;;;;;;;6.05;1.02;;;1.20;99.90;;;;;;20669981;28;20093;-49
2022/04/02 07:12:38;;;;;;;4.78;0.82;;;1.40;99.90;;;;;;20669462;28;20065;-44
2022/04/02 07:22:42;;;;;;;3.88;0.95;;;1.50;99.90;;;;;;20669734;28;20077;-44
2022/04/02 07:32:45;;;;;;;8.85;0.75;;;2.20;99.90;;;;;;20669045;28;20039;-45
2022/04/02 07:43:25;;;;;;;2.75;0.70;;;2.30;99.90;;;;;;20668515;28;20043;-45
2022/04/02 07:53:34;;;;;;;3.20;0.53;;;1.80;99.90;;;;;;20672679;28;20034;-47
2022/04/02 08:03:38;;;;;;;4.55;0.70;;;1.60;99.90;;;;;;20668433;28;20093;-44
2022/04/02 08:13:43;;;;;;;8.65;1.10;;;1.60;99.90;;;;;;20683709;28;20478;-43
2022/04/02 08:23:46;;;;;;;7.28;0.85;;;2.20;99.90;;;;;;20649867;28;20026;-41
2022/04/02 08:34:35;;;;;;;5.57;1.10;;;1.80;99.90;;;;;;20681565;28;20393;-42
2022/04/02 08:45:09;;;;;;;3.50;1.00;;;1.60;99.90;;;;;;20479335;29;20083;-44
2022/04/02 08:55:16;;;;;;;5.18;1.10;;;2.10;99.90;;;;;;20463233;28;20046;-44
2022/04/02 09:05:53;;;;;;;4.35;0.88;;;2.30;99.90;;;;;;20497290;28;20066;-44
2022/04/02 09:16:08;;;;;;;4.43;0.70;;;2.10;99.90;;;;;;20645467;28;20124;-46
2022/04/02 09:26:13;;;;;;;4.38;0.77;;;2.20;99.90;;;;;;20677462;28;20042;-43
2022/04/02 09:36:38;;;;;;;2.38;0.50;;;2.10;99.90;;;;;;20677206;28;20137;-44
2022/04/02 09:46:59;;;;;;;1.83;0.52;;;2.60;99.90;;;;;;20675030;28;20034;-45
2022/04/02 09:57:12;;;;;;;2.00;0.37;;;2.70;99.90;;;;;;20675462;28;20112;-44
2022/04/02 10:07:29;;;;;;;2.67;0.50;;;3.10;99.90;;;;;;20658897;28;20497;-46
2022/04/02 10:17:33;;;;;;;3.25;0.63;;;4.00;99.90;;;;;;20672764;28;20065;-45
2022/04/02 10:27:39;;;;;;;2.88;0.50;;;4.70;99.90;;;;;;20672159;28;20042;-55
2022/04/02 10:38:04;;;;;;;0.88;0.45;;;5.50;98.90;;;;;;20671669;28;20042;-47
2022/04/02 10:48:13;;;;;;;2.60;0.95;;;6.70;99.30;;;;;;20623178;28;20038;-49
2022/04/02 10:58:20;;;;;;;3.35;0.77;;;8.70;99.40;;;;;;20670630;28;20089;-52
2022/04/02 11:08:30;;;;;;;1.25;0.60;;;11.60;93.50;;;;;;20670376;28;20042;-47
2022/04/02 11:18:33;;;;;;;3.80;1.00;;;11.30;91.20;;;;;;20669900;28;20092;-47
2022/04/02 11:28:47;;;;;;;4.88;1.15;;;9.90;87.50;;;;;;20675778;28;20104;-47
2022/04/02 11:38:59;;;;;;;3.70;1.00;;;9.20;88.30;;;;;;20685638;28;20108;-49
2022/04/02 11:49:08;;;;;;;2.88;1.08;;;9.70;89.40;;;;;;20684891;28;20097;-53
2022/04/02 11:59:16;;;;;;;2.95;0.90;;;8.10;89.50;;;;;;20683981;28;20088;-50
2022/04/02 12:09:26;;;;;;;1.60;0.80;;;8.70;90.70;;;;;;20683219;28;21113;-48
2022/04/02 12:19:44;;;;;;;3.35;1.73;;;8.60;91.50;;;;;;20682439;28;20093;-47
2022/04/02 12:29:49;;;;;;;3.03;1.40;;;6.30;97.60;;;;;;20681406;28;20038;-50
2022/04/02 12:39:52;;;;;;;5.45;2.10;;;6.60;98.50;;;;;;20680163;28;20420;-49
2022/04/02 12:50:12;;;;;;;4.68;1.58;;;7.50;98.70;;;;;;20665608;28;20489;-49
2022/04/02 13:00:30;;;;;;;5.72;1.85;;;7.10;98.30;;;;;;20681518;28;20097;-47
2022/04/02 13:10:41;;;;;;;5.15;1.77;;;6.50;97.80;;;;;;20678852;28;20034;-48
2022/04/02 13:20:47;;;;;;;5.05;1.45;;;6.10;98.70;;;;;;20661310;28;20084;-52
2022/04/02 13:30:52;;;;;;;2.60;1.58;;;6.30;98.50;;;;;;20676775;28;20038;-51
2022/04/02 13:41:01;;;;;;;2.90;1.10;;;6.10;99.80;;;;;;20659887;28;20563;-48
2022/04/02 13:51:12;;;;;;;2.72;1.70;;;5.20;97.20;;;;;;20674575;28;20038;-47
2022/04/02 14:01:17;;;;;;;2.93;1.60;;;4.60;99.90;;;;;;20676740;28;20034;-49
2022/04/02 14:11:22;;;;;;;2.35;1.17;;;4.60;99.90;;;;;;20659260;28;20038;-46
2022/04/02 14:21:29;;;;;;;4.30;1.65;;;2.80;99.90;;;;;;20672914;28;20038;-46
2022/04/02 14:31:56;;;;;;;3.75;2.08;;;1.00;99.90;;;;;;20655968;28;20528;-47
2022/04/02 14:42:06;;;;;;;5.03;2.20;;;0.60;99.90;;;;;;20671260;28;20050;-46
2022/04/02 14:52:43;;;;;;;5.55;1.70;;;0.20;99.90;;;;;;20670745;28;20042;-45
2022/04/02 15:03:12;;;;;;;2.63;1.50;;;0.50;99.90;;;;;;20669714;28;20494;-48
2022/04/02 15:13:25;;;;;;;4.07;2.13;;;0.80;99.90;;;;;;20670267;28;20042;-45
2022/04/02 15:23:28;;;;;;;4.22;1.90;;;1.00;99.90;;;;;;20669541;28;20461;-45
2022/04/02 15:33:35;;;;;;;3.00;1.63;;;1.20;99.90;;;;;;20652492;28;20038;-47
2022/04/02 15:43:40;;;;;;;7.03;1.90;;;2.00;99.90;;;;;;20651613;28;20497;-47
2022/04/02 15:53:44;;;;;;;3.15;2.08;;;2.30;99.90;;;;;;20668109;28;20109;-47
2022/04/02 16:03:46;;;;;;;2.85;1.67;;;1.40;99.90;;;;;;20652331;28;20038;-47
2022/04/02 16:14:03;;;;;;;6.82;1.80;;;1.40;99.90;;;;;;20654213;28;20077;-49
2022/04/02 16:24:09;;;;;;;4.68;1.80;;;1.50;99.90;;;;;;20682237;28;20046;-46
2022/04/02 16:34:13;;;;;;;4.05;1.73;;;1.40;99.90;;;;;;20665017;28;20049;-46
2022/04/02 16:44:25;;;;;;;3.08;1.70;;;1.30;99.90;;;;;;20681693;28;20073;-46
2022/04/02 16:54:28;;;;;;;5.05;2.10;;;1.10;99.90;;;;;;20663495;28;20038;-45
2022/04/02 17:04:31;;;;;;;3.80;1.85;;;0.90;99.90;;;;;;20679091;28;20026;-46
2022/04/02 17:14:36;;;;;;;3.35;2.17;;;0.60;99.90;;;;;;20677832;28;20096;-45
2022/04/02 17:24:42;;;;;;;5.53;2.72;;;0.30;99.90;;;;;;20677190;28;20076;-44
2022/04/02 17:35:03;;;;;;;4.43;2.90;;;0.00;99.90;;;;;;20677120;28;20038;-44
2022/04/02 17:45:19;;;;;;;5.25;2.67;;;-0.30;99.90;;;;;;20675976;28;20066;-44
2022/04/02 17:55:28;;;;;;;4.85;2.60;;;-0.60;99.90;;;;;;20675303;28;20089;-46
2022/04/02 18:05:33;;;;;;;5.78;2.72;;;-0.70;99.90;;;;;;20658542;28;20037;-44
2022/04/02 18:15:36;;;;;;;4.45;2.70;;;-0.80;99.90;;;;;;20669813;28;20062;-44
2022/04/02 18:25:41;;;;;;;6.13;3.08;;;-0.90;99.90;;;;;;20673376;28;20445;-44
2022/04/02 18:35:43;;;;;;;9.02;3.75;;;-0.90;99.90;;;;;;20671376;28;20045;-45
2022/04/02 18:45:49;;;;;;;6.90;3.58;;;-0.80;99.90;;;;;;20671478;28;20105;-47
2022/04/02 18:55:51;;;;;;;6.60;3.22;;;-0.60;99.90;;;;;;20671933;28;20034;-48
2022/04/02 19:05:55;;;;;;;5.07;3.08;;;-0.60;99.90;;;;;;20674120;28;20077;-46
2022/04/02 19:15:57;;;;;;;12.68;5.15;;;-0.60;99.90;;;;;;20669456;28;20030;-47
2022/04/02 19:26:03;;;;;;;7.10;4.50;;;-0.80;99.90;;;;;;20669299;28;20070;-45
2022/04/02 19:36:06;;;;;;;6.22;3.65;;;-0.90;99.90;;;;;;20668697;28;20556;-46
2022/04/02 19:46:08;;;;;;;4.70;2.60;;;-0.80;99.90;;;;;;20653381;28;20462;-47
2022/04/02 19:56:13;;;;;;;3.05;1.90;;;-0.80;99.90;;;;;;20684698;28;20096;-46
2022/04/02 20:06:17;;;;;;;4.63;1.50;;;-0.70;99.90;;;;;;20686997;28;20063;-46
2022/04/02 20:16:20;;;;;;;2.03;1.42;;;-0.80;99.90;;;;;;20682751;28;20030;-47
2022/04/02 20:26:23;;;;;;;2.33;1.30;;;-0.90;99.90;;;;;;20665589;28;20038;-46
2022/04/02 20:36:26;;;;;;;1.75;1.00;;;-0.90;99.90;;;;;;20665066;28;20050;-46
2022/04/02 20:46:29;;;;;;;1.27;0.88;;;-0.80;99.90;;;;;;20664581;28;20034;-45
2022/04/02 20:56:31;;;;;;;1.52;1.10;;;-0.80;99.90;;;;;;20680622;28;20085;-48
2022/04/02 21:06:35;;;;;;;1.35;0.80;;;-1.00;99.90;;;;;;20680942;28;20070;-46
2022/04/02 21:16:38;;;;;;;1.05;0.63;;;-1.10;99.90;;;;;;20678127;28;20046;-46
2022/04/02 21:26:41;;;;;;;1.77;0.85;;;-1.10;99.90;;;;;;20661655;28;20031;-45
2022/04/02 21:36:45;;;;;;;0.93;0.60;;;-1.10;99.90;;;;;;20660968;28;20073;-45
2022/04/02 21:46:47;;;;;;;1.30;0.60;;;-1.20;99.90;;;;;;20676197;28;20076;-45
2022/04/02 21:56:50;;;;;;;1.90;0.70;;;-1.20;99.90;;;;;;20675192;28;20038;-46
2022/04/02 22:06:54;;;;;;;0.98;0.70;;;-1.20;99.90;;;;;;20655743;28;20109;-45
2022/04/02 22:16:57;;;;;;;1.33;0.60;;;-1.40;99.90;;;;;;20672957;28;20100;-49
2022/04/02 22:27:00;;;;;;;2.30;0.75;;;-1.60;99.90;;;;;;20672570;28;20084;-46
2022/04/02 22:37:03;;;;;;;1.27;0.57;;;-1.60;99.90;;;;;;20671740;28;20054;-45
2022/04/02 22:47:06;;;;;;;0.82;0.30;;;-1.50;99.90;;;;;;20671336;28;20030;-44
2022/04/02 22:57:09;;;;;;;1.65;0.65;;;-1.50;99.90;;;;;;20670632;28;20034;-45
2022/04/02 23:07:13;;;;;;;0.75;0.40;;;-1.50;99.90;;;;;;20670065;28;20101;-45
2022/04/02 23:17:16;;;;;;;1.00;0.70;;;-1.60;99.90;;;;;;20669613;28;20485;-45
2022/04/02 23:27:18;;;;;;;0.50;0.40;;;-1.50;99.90;;;;;;20669171;28;20065;-49
2022/04/02 23:37:21;;;;;;;1.30;0.90;;;-1.60;99.90;;;;;;20668847;28;20050;-47
2022/04/02 23:47:23;;;;;;;1.17;0.68;;;-1.60;99.90;;;;;;20668413;28;20046;-49
2022/04/02 23:57:26;;;;;;;1.58;0.77;;;-1.70;99.90;;;;;;20669929;28;20038;-46
